Time;durP1;ratioP1;P1;durP2;ratioP2;P2;SDS_P1;SDS_P2;PMS_P1;PMS_P2;Temp;Humidity;BMP_temperature;BMP_pressure;BME280_temperature;BME280_humidity;BME280_pressure;Samples;Min_cycle;Max_cycle;Signal;HPM_P1;HPM_P2
2020/12/13 00:01:40;;;;;;;61.33;23.33;;;8.70;99.90;;;;;;5053694;28;20217;-64
2020/12/13 00:04:06;;;;;;;54.93;23.43;;;8.70;99.90;;;;;;5053434;28;20194;-64
2020/12/13 00:06:32;;;;;;;61.93;24.00;;;8.70;99.90;;;;;;5053743;28;20210;-64
2020/12/13 00:08:59;;;;;;;55.00;23.87;;;8.70;99.90;;;;;;5053674;28;20193;-64
2020/12/13 00:11:25;;;;;;;54.27;22.63;;;8.80;99.90;;;;;;5053551;28;20191;-64
2020/12/13 00:13:51;;;;;;;52.90;21.93;;;8.80;99.90;;;;;;5052440;28;20224;-64
2020/12/13 00:16:17;;;;;;;52.03;22.93;;;8.80;99.90;;;;;;5053667;28;20178;-64
2020/12/13 00:18:43;;;;;;;53.57;25.03;;;8.80;99.90;;;;;;5051246;28;20210;-63
2020/12/13 00:21:15;;;;;;;58.97;25.03;;;8.70;99.90;;;;;;5033138;28;20191;-63
2020/12/13 00:23:41;;;;;;;57.07;23.70;;;8.70;99.90;;;;;;5033958;28;20266;-64
2020/12/13 00:26:11;;;;;;;53.27;23.30;;;8.70;99.90;;;;;;5053080;28;20187;-64
2020/12/13 00:28:37;;;;;;;60.20;25.53;;;8.70;99.90;;;;;;5053710;28;20574;-63
2020/12/13 00:31:03;;;;;;;58.17;24.53;;;8.70;99.90;;;;;;5053692;28;20209;-63
2020/12/13 00:33:29;;;;;;;51.93;24.13;;;8.70;99.90;;;;;;5054048;28;20183;-64
2020/12/13 00:35:55;;;;;;;61.30;25.33;;;8.70;99.90;;;;;;5053827;28;20182;-63
2020/12/13 00:38:21;;;;;;;54.00;24.77;;;8.70;99.90;;;;;;5053502;28;20754;-63
2020/12/13 00:40:51;;;;;;;53.87;24.13;;;8.70;99.90;;;;;;5053006;28;20202;-63
2020/12/13 00:43:17;;;;;;;50.17;23.37;;;8.70;99.90;;;;;;5053446;28;20193;-64
2020/12/13 00:45:43;;;;;;;48.47;22.33;;;8.60;99.90;;;;;;5053161;28;20253;-63
2020/12/13 00:48:09;;;;;;;50.93;22.47;;;8.70;99.90;;;;;;5053451;28;20270;-64
2020/12/13 00:50:39;;;;;;;49.63;22.57;;;8.70;99.90;;;;;;5052770;28;20202;-63
2020/12/13 00:53:06;;;;;;;50.53;22.70;;;8.70;99.90;;;;;;5053448;28;20175;-64
2020/12/13 00:55:32;;;;;;;48.30;21.33;;;8.70;99.90;;;;;;5053197;28;20599;-63
2020/12/13 00:57:57;;;;;;;47.50;20.70;;;8.70;99.90;;;;;;5053231;28;20290;-64
2020/12/13 01:00:23;;;;;;;47.47;21.33;;;8.70;99.90;;;;;;5052316;28;20210;-64
2020/12/13 01:02:49;;;;;;;45.00;20.50;;;8.70;99.90;;;;;;5051969;28;20532;-63
2020/12/13 01:05:15;;;;;;;44.57;18.73;;;8.60;99.90;;;;;;5053139;28;20593;-63
2020/12/13 01:07:42;;;;;;;47.20;20.67;;;8.60;99.90;;;;;;5052745;28;20178;-64
2020/12/13 01:10:08;;;;;;;45.87;20.13;;;8.60;99.90;;;;;;5052745;28;20722;-64
2020/12/13 01:12:34;;;;;;;49.33;22.73;;;8.60;99.90;;;;;;5052672;28;20175;-64
2020/12/13 01:15:00;;;;;;;46.67;20.80;;;8.60;99.90;;;;;;5052983;28;20179;-64
2020/12/13 01:17:25;;;;;;;50.27;22.33;;;8.60;99.90;;;;;;5051485;28;20171;-63
2020/12/13 01:19:51;;;;;;;43.13;20.07;;;8.60;99.90;;;;;;5052616;28;20271;-64
2020/12/13 01:22:17;;;;;;;44.17;21.53;;;8.50;99.90;;;;;;5052359;28;20175;-64
2020/12/13 01:24:42;;;;;;;47.77;22.07;;;8.50;99.90;;;;;;5052485;28;20175;-64
2020/12/13 01:27:08;;;;;;;45.10;22.43;;;8.50;99.90;;;;;;5052605;28;20170;-64
2020/12/13 01:29:33;;;;;;;51.50;23.80;;;8.50;99.90;;;;;;5052111;28;20233;-63
2020/12/13 01:31:59;;;;;;;47.07;22.47;;;8.60;99.90;;;;;;5052068;28;20178;-64
2020/12/13 01:34:25;;;;;;;48.43;23.43;;;8.50;99.90;;;;;;5052417;28;20222;-64
2020/12/13 01:36:50;;;;;;;57.30;24.30;;;8.60;99.90;;;;;;5052366;28;20179;-63
2020/12/13 01:39:16;;;;;;;55.07;24.87;;;8.50;99.90;;;;;;5052295;28;20206;-63
2020/12/13 01:41:41;;;;;;;51.43;22.37;;;8.50;99.90;;;;;;5051771;28;20274;-63
2020/12/13 01:44:07;;;;;;;53.00;22.57;;;8.50;99.90;;;;;;5052263;28;20183;-64
2020/12/13 01:46:33;;;;;;;57.37;24.53;;;8.50;99.90;;;;;;5052025;28;20183;-64
2020/12/13 01:49:07;;;;;;;57.13;23.13;;;8.50;99.90;;;;;;5051003;28;20198;-63
2020/12/13 01:54:12;;;;;;;53.50;23.03;;;8.60;99.90;;;;;;5052274;28;20656;-63
2020/12/13 01:56:46;;;;;;;53.37;22.77;;;8.60;99.90;;;;;;5051839;28;20282;-63
2020/12/13 01:59:15;;;;;;;50.13;22.57;;;8.60;99.90;;;;;;5051991;28;20709;-63
2020/12/13 02:01:45;;;;;;;43.50;20.30;;;8.60;99.90;;;;;;5051305;28;20260;-63
2020/12/13 02:04:15;;;;;;;47.83;22.47;;;8.60;99.90;;;;;;5050877;28;20528;-63
2020/12/13 02:06:42;;;;;;;50.43;22.17;;;8.60;99.90;;;;;;5050421;28;20178;-63
2020/12/13 02:09:09;;;;;;;46.87;22.80;;;8.60;99.90;;;;;;5051953;28;20183;-63
2020/12/13 02:11:35;;;;;;;46.37;22.57;;;8.50;99.90;;;;;;5051225;28;20209;-64
2020/12/13 02:14:00;;;;;;;47.40;22.83;;;8.50;99.90;;;;;;5051900;28;20179;-64
2020/12/13 02:16:27;;;;;;;48.80;23.40;;;8.50;99.90;;;;;;5051497;28;20186;-64
2020/12/13 02:18:52;;;;;;;48.47;23.93;;;8.50;99.90;;;;;;5049807;28;20698;-64
2020/12/13 02:21:18;;;;;;;49.37;22.50;;;8.50;99.90;;;;;;5049746;28;20203;-64
2020/12/13 02:23:45;;;;;;;52.50;22.67;;;8.50;99.90;;;;;;5051781;28;20171;-64
2020/12/13 02:26:13;;;;;;;50.60;24.63;;;8.50;99.90;;;;;;5051392;28;20224;-64
2020/12/13 02:28:38;;;;;;;49.10;21.93;;;8.50;99.90;;;;;;5051526;28;20179;-65
2020/12/13 02:31:05;;;;;;;48.83;23.80;;;8.50;99.90;;;;;;5051185;28;20671;-65
2020/12/13 02:33:31;;;;;;;50.53;22.40;;;8.50;99.90;;;;;;5051603;28;20171;-64
2020/12/13 02:35:58;;;;;;;49.67;23.40;;;8.50;99.90;;;;;;5051326;28;20579;-64
2020/12/13 02:38:24;;;;;;;48.83;22.40;;;8.40;99.90;;;;;;5051469;28;20559;-63
2020/12/13 02:40:49;;;;;;;42.73;20.63;;;8.40;99.90;;;;;;5051042;28;20190;-64
2020/12/13 02:43:15;;;;;;;45.50;23.17;;;8.30;99.90;;;;;;5055757;28;20163;-64
2020/12/13 02:45:40;;;;;;;45.17;23.50;;;8.30;99.90;;;;;;5057912;28;20663;-64
2020/12/13 02:48:06;;;;;;;43.13;22.40;;;8.30;99.90;;;;;;5058081;28;20734;-63
2020/12/13 02:50:32;;;;;;;38.77;21.03;;;8.30;99.90;;;;;;5057574;28;20265;-64
2020/12/13 02:52:58;;;;;;;43.20;20.63;;;8.30;99.90;;;;;;5058235;28;20189;-64
2020/12/13 02:55:24;;;;;;;43.33;21.00;;;8.40;99.90;;;;;;5058065;28;20227;-64
2020/12/13 02:57:51;;;;;;;49.77;23.30;;;8.40;99.90;;;;;;5057669;28;20182;-64
2020/12/13 03:00:16;;;;;;;44.37;20.47;;;8.40;99.90;;;;;;5057014;28;20687;-63
2020/12/13 03:02:42;;;;;;;42.07;21.90;;;8.40;99.90;;;;;;5057534;28;20181;-64
2020/12/13 03:05:08;;;;;;;46.50;22.00;;;8.40;99.90;;;;;;5056504;28;20193;-64
2020/12/13 03:07:33;;;;;;;43.77;22.83;;;8.40;99.90;;;;;;5057829;28;20633;-64
2020/12/13 03:09:59;;;;;;;46.80;22.50;;;8.40;99.90;;;;;;5057470;28;20209;-63
2020/12/13 03:12:27;;;;;;;41.57;20.60;;;8.40;99.90;;;;;;5057783;28;20182;-64
2020/12/13 03:14:53;;;;;;;43.70;22.53;;;8.40;99.90;;;;;;5057643;28;20228;-63
2020/12/13 03:17:19;;;;;;;43.37;22.80;;;8.40;99.90;;;;;;5056954;28;20179;-64
2020/12/13 03:19:45;;;;;;;40.83;20.73;;;8.40;99.90;;;;;;5057419;28;20234;-63
2020/12/13 03:22:11;;;;;;;41.17;20.60;;;8.40;99.90;;;;;;5057651;28;20221;-63
2020/12/13 03:24:36;;;;;;;41.23;21.43;;;8.40;99.90;;;;;;5057591;28;20520;-64
2020/12/13 03:27:02;;;;;;;38.07;21.50;;;8.30;99.90;;;;;;5057874;28;20648;-64
2020/12/13 03:29:28;;;;;;;41.37;22.67;;;8.40;99.90;;;;;;5057408;28;20213;-63
2020/12/13 03:31:53;;;;;;;41.83;21.00;;;8.40;99.90;;;;;;5057564;28;20171;-64
2020/12/13 03:34:19;;;;;;;40.80;19.50;;;8.40;99.90;;;;;;5057441;28;20674;-64
2020/12/13 03:36:44;;;;;;;40.63;20.43;;;8.30;99.90;;;;;;5056517;28;20511;-64
2020/12/13 03:39:10;;;;;;;36.87;18.90;;;8.40;99.90;;;;;;5056055;28;20238;-64
2020/12/13 03:41:36;;;;;;;39.43;19.17;;;8.30;99.90;;;;;;5057216;28;20197;-64
2020/12/13 03:44:01;;;;;;;39.00;20.80;;;8.30;99.90;;;;;;5057804;28;20171;-64
2020/12/13 03:46:27;;;;;;;41.60;20.07;;;8.30;99.90;;;;;;5057314;28;20240;-64
2020/12/13 03:48:52;;;;;;;37.27;19.77;;;8.30;99.90;;;;;;5057691;28;20179;-64
2020/12/13 03:51:18;;;;;;;38.43;19.27;;;8.30;99.90;;;;;;5056775;28;20230;-64
2020/12/13 03:53:44;;;;;;;35.10;19.37;;;8.30;99.90;;;;;;5055728;28;20183;-64
2020/12/13 03:56:09;;;;;;;34.70;17.37;;;8.30;99.90;;;;;;5053977;28;20196;-64
2020/12/13 03:58:35;;;;;;;33.73;18.23;;;8.30;99.90;;;;;;5053971;28;20286;-64
2020/12/13 04:01:00;;;;;;;31.10;16.37;;;8.40;99.90;;;;;;5053918;28;20214;-64
2020/12/13 04:03:26;;;;;;;32.97;16.77;;;8.40;99.90;;;;;;5053409;28;20733;-64
2020/12/13 04:05:51;;;;;;;36.73;17.10;;;8.40;99.90;;;;;;5053920;28;20186;-64
2020/12/13 04:08:17;;;;;;;34.60;18.03;;;8.40;99.90;;;;;;5054173;28;20254;-65
2020/12/13 04:10:43;;;;;;;31.33;16.87;;;8.40;99.90;;;;;;5053386;28;20285;-65
2020/12/13 04:13:08;;;;;;;27.93;16.53;;;8.40;99.90;;;;;;5054249;28;20188;-64
2020/12/13 04:15:34;;;;;;;30.17;17.53;;;8.40;99.90;;;;;;5054141;28;20178;-65
2020/12/13 04:17:59;;;;;;;30.03;15.73;;;8.40;99.90;;;;;;5052773;28;20181;-65
2020/12/13 04:20:25;;;;;;;28.80;16.80;;;8.40;99.90;;;;;;5053612;28;20198;-64
2020/12/13 04:22:51;;;;;;;31.10;16.17;;;8.40;99.90;;;;;;5053825;28;20179;-65
2020/12/13 04:25:16;;;;;;;26.27;14.67;;;8.40;99.90;;;;;;5052832;28;20182;-64
2020/12/13 04:27:42;;;;;;;30.30;14.47;;;8.40;99.90;;;;;;5053696;28;20178;-64
2020/12/13 04:30:08;;;;;;;26.33;14.53;;;8.40;99.90;;;;;;5053338;28;20206;-65
2020/12/13 04:32:34;;;;;;;26.90;14.80;;;8.40;99.90;;;;;;5053604;28;20167;-64
2020/12/13 04:35:00;;;;;;;24.00;13.53;;;8.40;99.90;;;;;;5053128;28;20541;-64
2020/12/13 04:37:25;;;;;;;25.97;13.70;;;8.40;99.90;;;;;;5053581;28;20641;-64
2020/12/13 04:39:52;;;;;;;24.17;13.50;;;8.40;99.90;;;;;;5053221;28;20970;-65
2020/12/13 04:42:18;;;;;;;19.63;12.20;;;8.30;99.90;;;;;;5053400;28;20175;-64
2020/12/13 04:44:45;;;;;;;20.67;13.33;;;8.30;99.90;;;;;;5053107;28;20194;-65
2020/12/13 04:47:18;;;;;;;18.60;11.63;;;8.30;99.90;;;;;;5053555;28;20182;-64
2020/12/13 04:49:49;;;;;;;22.33;12.67;;;8.30;99.90;;;;;;5053232;28;20195;-64
2020/12/13 04:52:14;;;;;;;22.37;13.43;;;8.30;99.90;;;;;;5053208;28;20174;-64
2020/12/13 04:54:49;;;;;;;20.57;12.20;;;8.30;99.90;;;;;;5053098;28;20179;-65
2020/12/13 04:57:16;;;;;;;19.83;12.10;;;8.30;99.90;;;;;;5053132;28;20174;-64
2020/12/13 04:59:42;;;;;;;22.40;12.97;;;8.30;99.90;;;;;;5052774;28;20219;-65
2020/12/13 05:02:12;;;;;;;21.70;13.23;;;8.30;99.90;;;;;;5520399;22;20219;-66
2020/12/13 05:04:37;;;;;;;17.90;12.83;;;8.20;99.90;;;;;;5052997;28;20167;-66
2020/12/13 05:07:03;;;;;;;23.03;12.97;;;8.20;99.90;;;;;;5063049;28;20186;-65
2020/12/13 05:09:28;;;;;;;19.07;12.63;;;8.20;99.90;;;;;;5072995;28;20245;-65
2020/12/13 05:11:54;;;;;;;18.23;13.00;;;8.20;99.90;;;;;;5062824;28;20294;-67
2020/12/13 05:14:20;;;;;;;20.63;13.60;;;8.20;99.90;;;;;;5053076;28;20206;-66
2020/12/13 05:16:45;;;;;;;16.63;11.63;;;8.20;99.90;;;;;;5056120;28;20175;-66
2020/12/13 05:19:12;;;;;;;17.10;11.93;;;8.20;99.90;;;;;;5071941;28;20201;-65
2020/12/13 05:21:38;;;;;;;17.17;12.10;;;8.20;99.90;;;;;;5065816;28;20289;-67
2020/12/13 05:24:07;;;;;;;23.37;13.13;;;8.20;99.90;;;;;;5052613;28;20242;-67
2020/12/13 05:26:33;;;;;;;24.43;13.30;;;8.10;99.90;;;;;;5056872;28;20177;-66
2020/12/13 05:29:04;;;;;;;22.43;13.70;;;8.10;99.90;;;;;;5072624;28;20224;-67
2020/12/13 05:31:32;;;;;;;22.43;13.60;;;8.10;99.90;;;;;;5068047;28;20201;-66
2020/12/13 05:34:03;;;;;;;21.63;13.57;;;8.10;99.90;;;;;;5052706;28;20190;-66
2020/12/13 05:36:32;;;;;;;22.53;14.00;;;8.20;99.90;;;;;;5053487;28;20170;-65
2020/12/13 05:38:58;;;;;;;22.07;12.83;;;8.20;99.90;;;;;;5052295;28;20213;-66
2020/12/13 05:41:35;;;;;;;18.30;12.53;;;8.10;99.90;;;;;;5053433;28;20277;-67
2020/12/13 05:44:25;;;;;;;20.97;13.27;;;8.10;99.90;;;;;;5071213;28;20391;-66
2020/12/13 05:47:10;;;;;;;23.43;15.10;;;8.10;99.90;;;;;;5071486;28;20174;-65
2020/12/13 05:52:03;;;;;;;25.47;13.67;;;8.00;99.90;;;;;;5065541;28;20199;-66
2020/12/13 05:54:29;;;;;;;21.63;14.33;;;8.00;99.90;;;;;;5052056;28;20273;-65
2020/12/13 05:57:00;;;;;;;23.27;14.53;;;7.90;99.90;;;;;;5056556;28;20170;-66
2020/12/13 05:59:27;;;;;;;22.80;14.37;;;7.90;99.90;;;;;;5071719;28;20214;-65
2020/12/13 06:01:58;;;;;;;28.43;15.27;;;7.90;99.90;;;;;;5052607;28;20221;-66
2020/12/13 06:04:33;;;;;;;26.70;16.00;;;7.90;99.90;;;;;;5050805;28;20232;-65
2020/12/13 06:07:04;;;;;;;24.57;15.37;;;7.80;99.90;;;;;;5071380;28;20177;-66
2020/12/13 06:09:34;;;;;;;26.30;15.33;;;7.80;99.90;;;;;;5071329;28;20170;-65
2020/12/13 06:12:11;;;;;;;28.90;16.53;;;7.80;99.90;;;;;;5030343;28;20277;-66
2020/12/13 06:14:37;;;;;;;26.87;16.17;;;7.70;99.90;;;;;;5049352;28;20171;-65
2020/12/13 06:17:04;;;;;;;29.60;17.63;;;7.70;99.90;;;;;;5050770;28;20763;-66
2020/12/13 06:19:32;;;;;;;28.87;16.27;;;7.70;99.90;;;;;;5051737;28;20202;-66
2020/12/13 06:22:00;;;;;;;24.93;16.33;;;7.70;99.90;;;;;;5051481;28;20189;-67
2020/12/13 06:24:26;;;;;;;31.60;17.47;;;7.70;99.90;;;;;;5065747;28;20182;-66
2020/12/13 06:26:52;;;;;;;34.40;17.67;;;7.70;99.90;;;;;;5071684;28;20172;-66
2020/12/13 06:29:20;;;;;;;33.70;18.00;;;7.60;99.90;;;;;;5058197;28;20236;-67
2020/12/13 06:31:47;;;;;;;29.63;18.60;;;7.60;99.90;;;;;;5051126;28;20190;-66
2020/12/13 06:34:13;;;;;;;27.97;14.40;;;7.60;99.90;;;;;;5065929;28;20683;-65
2020/12/13 06:36:39;;;;;;;37.60;17.97;;;7.60;99.90;;;;;;5071460;28;20170;-64
2020/12/13 06:39:14;;;;;;;35.97;18.13;;;7.60;99.90;;;;;;5057603;28;20641;-65
2020/12/13 06:41:42;;;;;;;30.10;15.77;;;7.50;99.90;;;;;;5060875;28;20200;-66
2020/12/13 06:44:09;;;;;;;27.23;16.03;;;7.50;99.90;;;;;;5071555;28;20232;-66
2020/12/13 06:46:40;;;;;;;31.03;17.53;;;7.50;99.90;;;;;;5061317;28;20171;-65
2020/12/13 06:49:09;;;;;;;33.80;17.20;;;7.50;99.90;;;;;;5051500;28;20212;-66
2020/12/13 06:51:37;;;;;;;27.60;16.77;;;7.50;99.90;;;;;;5059828;28;20700;-65
2020/12/13 06:54:09;;;;;;;29.83;17.97;;;7.50;99.90;;;;;;5071387;28;20174;-66
2020/12/13 06:56:35;;;;;;;36.57;19.00;;;7.50;99.90;;;;;;5060486;28;20235;-64
2020/12/13 06:59:04;;;;;;;31.23;17.07;;;7.50;99.90;;;;;;5071202;28;20197;-66
2020/12/13 07:01:37;;;;;;;38.23;19.90;;;7.50;99.90;;;;;;5068853;28;20217;-66
2020/12/13 07:04:21;;;;;;;32.00;19.13;;;7.40;99.90;;;;;;5070520;28;20166;-66
2020/12/13 07:06:50;;;;;;;31.43;17.93;;;7.40;99.90;;;;;;5059806;28;20178;-65
2020/12/13 07:09:18;;;;;;;30.47;18.00;;;7.40;99.90;;;;;;5051077;28;20258;-66
2020/12/13 07:11:45;;;;;;;30.13;18.07;;;7.40;99.90;;;;;;5060644;28;20202;-65
2020/12/13 07:14:14;;;;;;;35.13;19.80;;;7.40;99.90;;;;;;5071118;28;20174;-66
2020/12/13 07:16:45;;;;;;;34.53;18.73;;;7.30;99.90;;;;;;5061581;28;20597;-66
2020/12/13 07:19:14;;;;;;;28.37;16.40;;;7.30;99.90;;;;;;5049142;28;20234;-66
2020/12/13 07:21:41;;;;;;;33.53;17.67;;;7.30;99.90;;;;;;5059056;28;20205;-65
2020/12/13 07:24:08;;;;;;;32.30;16.10;;;7.30;99.90;;;;;;5071186;28;20254;-66
2020/12/13 07:26:36;;;;;;;35.07;17.60;;;7.20;99.90;;;;;;5069007;28;20182;-66
2020/12/13 07:29:03;;;;;;;31.07;16.97;;;7.30;99.90;;;;;;5072722;28;20179;-66
2020/12/13 07:31:37;;;;;;;40.60;17.63;;;7.30;99.90;;;;;;5067821;28;20219;-67
2020/12/13 07:34:06;;;;;;;34.80;18.37;;;7.30;99.90;;;;;;5054056;28;20179;-66
2020/12/13 07:36:33;;;;;;;34.73;15.73;;;7.30;99.90;;;;;;5057415;28;20182;-65
2020/12/13 07:39:04;;;;;;;35.10;18.17;;;7.30;99.90;;;;;;5057976;28;20248;-66
2020/12/13 07:41:30;;;;;;;29.90;17.00;;;7.30;99.90;;;;;;5054235;28;20384;-63
2020/12/13 07:44:05;;;;;;;35.17;16.00;;;7.30;99.90;;;;;;5053958;28;20256;-66
2020/12/13 07:46:33;;;;;;;95.07;38.17;;;7.30;99.90;;;;;;5053228;28;20178;-67
2020/12/13 07:49:23;;;;;;;28.50;15.93;;;7.40;99.90;;;;;;5055139;28;20175;-67
2020/12/13 07:51:51;;;;;;;26.10;15.50;;;7.30;99.90;;;;;;5065668;28;20264;-67
2020/12/13 07:54:22;;;;;;;26.30;14.73;;;7.30;99.90;;;;;;5067641;28;20193;-67
2020/12/13 07:56:51;;;;;;;22.47;13.70;;;7.40;99.90;;;;;;5070232;28;20174;-66
2020/12/13 07:59:22;;;;;;;25.57;13.57;;;7.50;99.90;;;;;;5072159;28;20209;-67
2020/12/13 08:01:53;;;;;;;30.33;14.40;;;7.50;99.90;;;;;;5067155;28;20228;-66
2020/12/13 08:04:35;;;;;;;28.63;15.27;;;7.50;99.90;;;;;;5064683;28;20181;-63
2020/12/13 08:07:11;;;;;;;25.60;16.50;;;7.50;99.90;;;;;;5054053;28;20170;-63
2020/12/13 08:09:43;;;;;;;26.10;15.27;;;7.50;99.90;;;;;;5067325;28;20368;-64
2020/12/13 08:12:10;;;;;;;26.43;15.73;;;7.60;99.90;;;;;;5053543;28;20615;-64
2020/12/13 08:14:36;;;;;;;29.20;16.10;;;7.60;99.90;;;;;;5071475;28;20558;-61
2020/12/13 08:17:02;;;;;;;33.93;16.10;;;7.60;99.90;;;;;;5057882;28;20270;-65
2020/12/13 08:19:35;;;;;;;26.00;15.90;;;7.70;99.90;;;;;;5066501;28;20209;-65
2020/12/13 08:22:02;;;;;;;23.93;15.83;;;7.70;99.90;;;;;;5071364;28;20281;-65
2020/12/13 08:24:31;;;;;;;28.30;15.43;;;7.80;99.90;;;;;;5068198;28;20521;-65
2020/12/13 08:27:01;;;;;;;21.77;14.13;;;7.80;99.90;;;;;;5070209;28;20204;-64
2020/12/13 08:29:32;;;;;;;22.17;12.67;;;7.80;99.90;;;;;;5065330;28;20539;-62
2020/12/13 08:31:58;;;;;;;19.97;12.37;;;7.90;99.90;;;;;;5057369;28;20194;-63
2020/12/13 08:34:29;;;;;;;24.47;12.27;;;7.90;99.90;;;;;;5061445;28;20215;-66
2020/12/13 08:36:58;;;;;;;20.67;12.90;;;7.90;99.90;;;;;;5073030;28;20185;-63
2020/12/13 08:39:31;;;;;;;20.77;13.63;;;7.90;99.90;;;;;;5064399;28;20234;-63
2020/12/13 08:41:59;;;;;;;20.50;12.60;;;8.00;99.90;;;;;;5051470;28;20198;-64
2020/12/13 08:44:28;;;;;;;17.73;12.30;;;8.10;99.90;;;;;;5069695;28;20185;-65
2020/12/13 08:46:55;;;;;;;23.40;11.60;;;8.10;99.90;;;;;;5056589;28;20228;-66
2020/12/13 08:49:32;;;;;;;20.13;10.87;;;8.20;99.90;;;;;;5062404;28;20181;-64
2020/12/13 08:52:20;;;;;;;16.67;10.70;;;8.30;99.90;;;;;;5072666;28;20605;-65
2020/12/13 08:54:56;;;;;;;19.80;11.63;;;8.30;99.90;;;;;;5068264;28;20197;-65
2020/12/13 08:57:29;;;;;;;25.27;12.23;;;8.40;99.90;;;;;;5072912;28;20174;-65
2020/12/13 08:59:57;;;;;;;19.47;11.90;;;8.50;99.90;;;;;;5058830;28;20199;-65
2020/12/13 09:02:23;;;;;;;19.80;12.60;;;8.50;99.90;;;;;;5052637;28;20674;-65
2020/12/13 09:04:55;;;;;;;17.77;10.57;;;8.50;99.90;;;;;;5052767;28;20174;-65
2020/12/13 09:07:21;;;;;;;20.80;11.93;;;8.50;99.90;;;;;;5052698;28;20235;-64
2020/12/13 09:09:47;;;;;;;23.87;13.13;;;8.50;99.90;;;;;;5054592;28;20167;-64
2020/12/13 09:12:28;;;;;;;29.03;20.30;;;8.50;99.90;;;;;;5062277;28;20197;-66
2020/12/13 09:14:54;;;;;;;33.70;18.00;;;8.60;99.90;;;;;;5055920;28;20178;-65
2020/12/13 09:17:23;;;;;;;28.47;15.00;;;8.70;99.90;;;;;;5071357;28;20647;-65
2020/12/13 09:19:50;;;;;;;29.67;16.27;;;8.70;99.90;;;;;;5069495;28;20648;-66
2020/12/13 09:22:22;;;;;;;39.07;23.37;;;8.80;99.90;;;;;;5052447;28;20187;-65
2020/12/13 09:24:49;;;;;;;28.83;17.23;;;8.80;99.90;;;;;;5054051;28;20173;-65
2020/12/13 09:27:18;;;;;;;22.20;14.50;;;8.70;99.90;;;;;;5072266;28;20255;-66
2020/12/13 09:29:46;;;;;;;21.40;13.37;;;8.70;99.90;;;;;;5071760;28;20177;-65
2020/12/13 09:32:12;;;;;;;17.53;11.20;;;8.70;99.90;;;;;;5052122;28;20665;-63
2020/12/13 09:34:38;;;;;;;21.27;14.93;;;8.70;99.90;;;;;;5052163;28;20257;-64
2020/12/13 09:37:07;;;;;;;20.50;16.10;;;8.80;99.90;;;;;;5071584;28;20247;-65
2020/12/13 09:39:33;;;;;;;18.03;10.93;;;8.70;99.90;;;;;;5072290;28;20230;-65
2020/12/13 09:41:58;;;;;;;16.70;12.07;;;8.70;99.90;;;;;;5053150;28;20218;-64
2020/12/13 09:44:24;;;;;;;15.53;11.67;;;8.70;99.90;;;;;;5052177;28;20253;-65
2020/12/13 09:46:55;;;;;;;17.23;9.70;;;8.80;99.90;;;;;;5052206;28;20174;-64
2020/12/13 09:49:21;;;;;;;13.17;8.00;;;8.80;99.90;;;;;;5051929;28;20261;-65
2020/12/13 09:51:47;;;;;;;14.87;10.00;;;8.70;99.90;;;;;;5071038;28;20601;-65
2020/12/13 09:54:12;;;;;;;12.57;8.70;;;8.70;99.90;;;;;;5072054;28;20581;-65
2020/12/13 09:56:38;;;;;;;13.10;8.93;;;8.70;99.90;;;;;;5052670;28;20186;-67
2020/12/13 09:59:04;;;;;;;11.60;8.13;;;8.80;99.90;;;;;;5052009;28;20252;-64
2020/12/13 10:01:29;;;;;;;14.60;7.23;;;8.90;99.90;;;;;;5068119;28;20209;-63
2020/12/13 10:03:55;;;;;;;9.17;6.53;;;9.00;99.90;;;;;;5071668;28;20170;-65
2020/12/13 10:11:32;;;;;;;7.23;5.60;;;9.10;99.90;;;;;;5052191;28;20194;-64
2020/12/13 10:13:58;;;;;;;8.70;5.90;;;9.20;99.90;;;;;;5051530;28;20178;-63
2020/12/13 10:16:25;;;;;;;7.87;5.93;;;9.20;99.90;;;;;;5067619;28;20644;-60
2020/12/13 10:18:51;;;;;;;7.10;5.00;;;9.20;99.90;;;;;;5071636;28;20198;-66
2020/12/13 10:21:24;;;;;;;9.37;5.13;;;9.20;99.90;;;;;;5055838;28;20623;-64
2020/12/13 10:23:50;;;;;;;6.50;4.70;;;9.20;99.90;;;;;;5051541;28;20163;-65
2020/12/13 10:26:16;;;;;;;8.37;4.90;;;9.20;99.90;;;;;;5065414;28;20186;-65
2020/12/13 10:28:42;;;;;;;7.87;4.23;;;9.30;99.90;;;;;;5070083;28;20174;-65
2020/12/13 10:31:11;;;;;;;6.07;4.17;;;9.40;99.90;;;;;;5058200;28;20198;-65
2020/12/13 10:33:40;;;;;;;9.73;5.20;;;9.40;99.90;;;;;;5051458;28;20174;-64
2020/12/13 10:36:10;;;;;;;5.63;3.87;;;9.50;99.90;;;;;;5052297;28;20181;-64
2020/12/13 10:38:36;;;;;;;7.53;4.30;;;9.50;99.90;;;;;;5051241;28;20660;-65
2020/12/13 10:41:04;;;;;;;4.77;4.00;;;9.50;99.90;;;;;;5051824;28;20191;-63
2020/12/13 10:43:29;;;;;;;4.47;4.00;;;9.50;99.90;;;;;;5050071;28;20175;-64
2020/12/13 10:45:55;;;;;;;6.03;5.20;;;9.60;99.90;;;;;;5060465;28;20180;-64
2020/12/13 10:48:21;;;;;;;8.80;4.80;;;9.60;99.90;;;;;;5071422;28;20170;-64
2020/12/13 10:50:46;;;;;;;12.67;5.43;;;9.60;99.90;;;;;;5063001;28;20245;-62
2020/12/13 10:53:12;;;;;;;10.30;5.43;;;9.50;99.90;;;;;;5051221;28;20177;-65
2020/12/13 10:55:37;;;;;;;9.27;5.27;;;9.40;99.90;;;;;;5056572;28;20184;-61
2020/12/13 10:58:03;;;;;;;12.00;4.47;;;9.40;99.90;;;;;;5070711;28;20256;-64
2020/12/13 11:00:29;;;;;;;6.67;4.53;;;9.40;99.90;;;;;;5066512;28;20728;-61
2020/12/13 11:02:54;;;;;;;6.87;4.73;;;9.30;99.90;;;;;;5051558;28;20189;-64
2020/12/13 11:05:20;;;;;;;9.47;5.43;;;9.30;99.90;;;;;;5074529;28;20216;-63
2020/12/13 11:07:45;;;;;;;11.97;5.53;;;9.40;99.90;;;;;;5075284;28;20260;-63
2020/12/13 11:10:11;;;;;;;11.47;5.60;;;9.40;99.90;;;;;;5056614;28;20261;-64
2020/12/13 11:12:36;;;;;;;8.63;5.50;;;9.40;99.90;;;;;;5055136;28;20173;-65
2020/12/13 11:15:04;;;;;;;7.80;5.13;;;9.40;99.90;;;;;;5069353;28;20178;-64
2020/12/13 11:17:29;;;;;;;8.50;5.20;;;9.40;99.90;;;;;;5075084;28;20174;-64
2020/12/13 11:19:55;;;;;;;7.23;4.70;;;9.50;99.90;;;;;;5059310;28;20199;-65
2020/12/13 11:22:20;;;;;;;6.90;4.73;;;9.50;99.90;;;;;;5054585;28;20284;-65
2020/12/13 11:24:46;;;;;;;8.30;5.53;;;9.70;99.90;;;;;;5054835;28;20175;-63
2020/12/13 11:27:12;;;;;;;8.40;5.40;;;10.00;99.90;;;;;;5054110;28;20265;-65
2020/12/13 11:29:37;;;;;;;6.90;4.33;;;10.30;99.90;;;;;;5054766;28;20182;-63
2020/12/13 11:32:03;;;;;;;6.37;3.63;;;10.50;99.90;;;;;;5063629;28;20272;-65
2020/12/13 11:34:29;;;;;;;12.83;5.17;;;10.90;99.90;;;;;;5074742;28;20174;-65
2020/12/13 11:36:54;;;;;;;4.20;2.63;;;11.80;99.90;;;;;;5066334;28;20251;-64
2020/12/13 11:39:20;;;;;;;6.23;3.23;;;12.70;99.90;;;;;;5054532;28;20234;-64
2020/12/13 11:41:46;;;;;;;2.83;1.87;;;13.60;99.90;;;;;;5054258;28;20193;-65
2020/12/13 11:44:11;;;;;;;3.50;2.63;;;14.10;99.90;;;;;;5055181;28;20250;-65
2020/12/13 11:46:37;;;;;;;4.90;2.60;;;14.60;99.90;;;;;;5073918;28;20182;-64
2020/12/13 11:49:03;;;;;;;3.37;2.23;;;14.90;99.90;;;;;;5074375;28;20193;-65
2020/12/13 11:51:28;;;;;;;3.63;1.93;;;15.00;99.90;;;;;;5054031;28;20248;-62
2020/12/13 11:53:54;;;;;;;6.57;2.43;;;15.40;99.90;;;;;;5054056;28;20258;-67
2020/12/13 11:56:23;;;;;;;2.20;1.73;;;16.00;99.90;;;;;;5071679;28;20178;-64
2020/12/13 11:58:49;;;;;;;3.50;2.20;;;16.20;99.90;;;;;;5074018;28;20206;-65
2020/12/13 12:01:19;;;;;;;2.50;2.00;;;15.90;99.90;;;;;;5054297;28;20210;-64
2020/12/13 12:03:45;;;;;;;2.40;1.80;;;15.50;99.90;;;;;;5054188;28;20181;-65
2020/12/13 12:06:14;;;;;;;4.17;2.27;;;14.80;99.90;;;;;;5072354;28;20265;-65
2020/12/13 12:08:42;;;;;;;4.87;2.43;;;14.10;99.90;;;;;;5073988;28;20174;-62
2020/12/13 12:11:07;;;;;;;3.83;2.60;;;13.40;99.90;;;;;;5055475;28;20206;-62
2020/12/13 12:13:33;;;;;;;4.67;2.47;;;12.80;99.90;;;;;;5053980;28;20175;-64
2020/12/13 12:15:58;;;;;;;4.23;1.97;;;12.30;99.90;;;;;;5064526;28;20183;-65
2020/12/13 12:18:24;;;;;;;5.10;2.20;;;11.90;99.90;;;;;;5055362;28;20744;-66
2020/12/13 12:20:49;;;;;;;7.37;4.07;;;11.60;99.90;;;;;;5053424;28;20182;-65
2020/12/13 12:23:15;;;;;;;3.77;2.77;;;11.30;99.90;;;;;;5054584;28;20238;-65
2020/12/13 12:25:48;;;;;;;3.50;2.37;;;11.10;99.90;;;;;;5053772;28;20640;-64
2020/12/13 12:28:13;;;;;;;6.70;4.17;;;11.00;99.90;;;;;;5064323;28;20174;-65
2020/12/13 12:30:39;;;;;;;4.97;3.43;;;10.80;99.90;;;;;;5073508;28;20216;-65
2020/12/13 12:33:04;;;;;;;2.40;2.20;;;10.80;99.90;;;;;;5063027;28;20179;-65
2020/12/13 12:35:30;;;;;;;10.03;6.30;;;10.80;99.90;;;;;;5053434;28;20183;-64
2020/12/13 12:37:56;;;;;;;11.47;5.63;;;10.90;99.90;;;;;;5061371;28;20651;-61
2020/12/13 12:40:23;;;;;;;6.37;4.60;;;11.00;99.90;;;;;;5072916;28;20574;-64
2020/12/13 12:42:48;;;;;;;6.77;4.13;;;11.10;99.90;;;;;;5066614;28;20171;-64
2020/12/13 12:45:14;;;;;;;5.17;3.40;;;11.30;99.90;;;;;;5053253;28;20251;-64
2020/12/13 12:47:39;;;;;;;4.93;2.93;;;11.30;99.90;;;;;;5057462;28;20174;-64
2020/12/13 12:50:05;;;;;;;7.43;2.93;;;11.30;99.90;;;;;;5072943;28;20177;-65
2020/12/13 12:52:31;;;;;;;5.70;2.07;;;11.40;99.90;;;;;;5071144;28;20182;-64